sensor_id;sensor_type;location;lat;lon;timestamp;pressure;altitude;pressure_sealevel;temperature;humidity
24154;BME280;12312;53.362;-1.518;2022-07-30T00:00:05;99523.66;;;15.87;77.02
24154;BME280;12312;53.362;-1.518;2022-07-30T00:02:32;99516.22;;;16.00;76.37
24154;BME280;12312;53.362;-1.518;2022-07-30T00:04:58;99523.97;;;15.94;76.43
24154;BME280;12312;53.362;-1.518;2022-07-30T00:07:24;99523.16;;;16.13;75.37
24154;BME280;12312;53.362;-1.518;2022-07-30T00:09:50;99522.59;;;16.19;75.07
24154;BME280;12312;53.362;-1.518;2022-07-30T00:12:16;99516.94;;;16.02;75.40
24154;BME280;12312;53.362;-1.518;2022-07-30T00:14:41;99510.47;;;16.15;75.20
24154;BME280;12312;53.362;-1.518;2022-07-30T00:17:07;99502.97;;;16.09;75.18
24154;BME280;12312;53.362;-1.518;2022-07-30T00:19:32;99498.16;;;16.02;75.60
24154;BME280;12312;53.362;-1.518;2022-07-30T00:21:58;99499.66;;;15.95;75.88
24154;BME280;12312;53.362;-1.518;2022-07-30T00:24:25;99505.03;;;15.95;76.22
24154;BME280;12312;53.362;-1.518;2022-07-30T00:26:51;99506.19;;;16.02;75.37
24154;BME280;12312;53.362;-1.518;2022-07-30T00:29:17;99505.47;;;16.00;75.63
24154;BME280;12312;53.362;-1.518;2022-07-30T00:31:44;99507.03;;;16.03;75.78
24154;BME280;12312;53.362;-1.518;2022-07-30T00:34:10;99503.06;;;15.97;76.04
24154;BME280;12312;53.362;-1.518;2022-07-30T00:36:37;99501.34;;;15.87;77.08
24154;BME280;12312;53.362;-1.518;2022-07-30T00:39:03;99496.81;;;15.87;76.62
24154;BME280;12312;53.362;-1.518;2022-07-30T00:41:29;99486.09;;;15.97;75.97
24154;BME280;12312;53.362;-1.518;2022-07-30T00:43:55;99486.50;;;15.92;76.19
24154;BME280;12312;53.362;-1.518;2022-07-30T00:46:21;99476.22;;;15.97;76.37
24154;BME280;12312;53.362;-1.518;2022-07-30T00:48:47;99476.81;;;16.01;76.07
24154;BME280;12312;53.362;-1.518;2022-07-30T00:51:14;99482.84;;;16.03;76.26
24154;BME280;12312;53.362;-1.518;2022-07-30T00:53:40;99478.75;;;15.99;76.55
24154;BME280;12312;53.362;-1.518;2022-07-30T00:56:06;99474.81;;;15.93;76.60
24154;BME280;12312;53.362;-1.518;2022-07-30T00:58:32;99468.03;;;15.99;76.50
24154;BME280;12312;53.362;-1.518;2022-07-30T01:00:57;99469.97;;;15.87;76.89
24154;BME280;12312;53.362;-1.518;2022-07-30T01:03:23;99466.34;;;15.98;76.49
24154;BME280;12312;53.362;-1.518;2022-07-30T01:05:49;99459.53;;;15.94;76.84
24154;BME280;12312;53.362;-1.518;2022-07-30T01:08:15;99464.66;;;16.07;76.24
24154;BME280;12312;53.362;-1.518;2022-07-30T01:10:41;99465.91;;;16.12;75.92
24154;BME280;12312;53.362;-1.518;2022-07-30T01:13:08;99463.66;;;16.17;75.94
24154;BME280;12312;53.362;-1.518;2022-07-30T01:15:34;99466.22;;;16.19;76.26
24154;BME280;12312;53.362;-1.518;2022-07-30T01:18:02;99458.00;;;16.11;76.59
24154;BME280;12312;53.362;-1.518;2022-07-30T01:20:33;99455.59;;;16.08;77.29
24154;BME280;12312;53.362;-1.518;2022-07-30T01:23:11;99452.78;;;15.99;77.99
24154;BME280;12312;53.362;-1.518;2022-07-30T01:26:00;99448.78;;;15.84;78.70
24154;BME280;12312;53.362;-1.518;2022-07-30T01:28:32;99448.84;;;15.54;81.22
24154;BME280;12312;53.362;-1.518;2022-07-30T01:31:02;99445.34;;;15.54;82.75
24154;BME280;12312;53.362;-1.518;2022-07-30T01:33:28;99446.69;;;15.48;84.52
24154;BME280;12312;53.362;-1.518;2022-07-30T01:35:57;99451.19;;;15.38;84.25
24154;BME280;12312;53.362;-1.518;2022-07-30T01:38:26;99445.47;;;15.32;85.46
24154;BME280;12312;53.362;-1.518;2022-07-30T01:40:53;99451.97;;;15.29;87.06
24154;BME280;12312;53.362;-1.518;2022-07-30T01:43:22;99441.13;;;15.01;88.22
24154;BME280;12312;53.362;-1.518;2022-07-30T01:45:51;99446.03;;;14.96;89.56
24154;BME280;12312;53.362;-1.518;2022-07-30T01:48:20;99451.00;;;15.00;89.70
24154;BME280;12312;53.362;-1.518;2022-07-30T01:50:49;99451.00;;;15.00;90.60
24154;BME280;12312;53.362;-1.518;2022-07-30T01:53:21;99453.47;;;14.92;90.78
24154;BME280;12312;53.362;-1.518;2022-07-30T01:55:49;99441.41;;;15.07;88.87
24154;BME280;12312;53.362;-1.518;2022-07-30T01:58:18;99434.38;;;15.06;89.90
24154;BME280;12312;53.362;-1.518;2022-07-30T02:00:48;99431.28;;;15.11;88.88
24154;BME280;12312;53.362;-1.518;2022-07-30T02:03:14;99432.94;;;15.32;85.34
24154;BME280;12312;53.362;-1.518;2022-07-30T02:05:42;99433.38;;;15.37;85.23
24154;BME280;12312;53.362;-1.518;2022-07-30T02:08:17;99435.84;;;15.40;84.95
24154;BME280;12312;53.362;-1.518;2022-07-30T02:10:50;99419.75;;;15.40;84.96
24154;BME280;12312;53.362;-1.518;2022-07-30T02:13:19;99425.44;;;15.36;86.13
24154;BME280;12312;53.362;-1.518;2022-07-30T02:15:55;99420.63;;;15.20;86.99
24154;BME280;12312;53.362;-1.518;2022-07-30T02:18:30;99424.38;;;15.38;85.26
24154;BME280;12312;53.362;-1.518;2022-07-30T02:21:02;99430.25;;;15.32;86.02
24154;BME280;12312;53.362;-1.518;2022-07-30T02:23:30;99424.09;;;15.41;84.93
24154;BME280;12312;53.362;-1.518;2022-07-30T02:26:00;99418.47;;;15.44;85.27
24154;BME280;12312;53.362;-1.518;2022-07-30T02:28:26;99416.78;;;15.43;85.91
24154;BME280;12312;53.362;-1.518;2022-07-30T02:30:56;99410.41;;;15.44;87.22
24154;BME280;12312;53.362;-1.518;2022-07-30T02:33:28;99420.69;;;15.39;87.59
24154;BME280;12312;53.362;-1.518;2022-07-30T02:35:55;99415.84;;;15.33;87.66
24154;BME280;12312;53.362;-1.518;2022-07-30T02:38:23;99419.78;;;15.29;87.36
24154;BME280;12312;53.362;-1.518;2022-07-30T02:40:54;99413.03;;;15.35;87.18
24154;BME280;12312;53.362;-1.518;2022-07-30T02:43:20;99411.63;;;15.31;88.06
24154;BME280;12312;53.362;-1.518;2022-07-30T02:45:49;99422.47;;;15.29;88.39
24154;BME280;12312;53.362;-1.518;2022-07-30T02:48:16;99413.16;;;15.33;87.56
24154;BME280;12312;53.362;-1.518;2022-07-30T02:50:44;99412.38;;;15.42;86.70
24154;BME280;12312;53.362;-1.518;2022-07-30T02:53:13;99402.38;;;15.44;86.04
24154;BME280;12312;53.362;-1.518;2022-07-30T02:55:40;99404.34;;;15.42;86.52
24154;BME280;12312;53.362;-1.518;2022-07-30T02:58:07;99403.41;;;15.62;84.29
24154;BME280;12312;53.362;-1.518;2022-07-30T03:00:35;99395.25;;;15.73;83.37
24154;BME280;12312;53.362;-1.518;2022-07-30T03:03:04;99396.38;;;15.80;82.67
24154;BME280;12312;53.362;-1.518;2022-07-30T03:05:32;99392.41;;;15.75;83.10
24154;BME280;12312;53.362;-1.518;2022-07-30T03:07:59;99394.25;;;15.74;83.24
24154;BME280;12312;53.362;-1.518;2022-07-30T03:10:26;99390.28;;;15.78;82.86
24154;BME280;12312;53.362;-1.518;2022-07-30T03:12:52;99386.91;;;15.76;83.13
24154;BME280;12312;53.362;-1.518;2022-07-30T03:15:18;99383.22;;;15.77;82.77
24154;BME280;12312;53.362;-1.518;2022-07-30T03:17:51;99387.47;;;15.70;83.91
24154;BME280;12312;53.362;-1.518;2022-07-30T03:20:19;99387.47;;;15.80;83.02
24154;BME280;12312;53.362;-1.518;2022-07-30T03:22:49;99377.28;;;15.74;83.34
24154;BME280;12312;53.362;-1.518;2022-07-30T03:25:22;99381.81;;;15.73;83.72
24154;BME280;12312;53.362;-1.518;2022-07-30T03:27:49;99373.34;;;15.68;84.29
24154;BME280;12312;53.362;-1.518;2022-07-30T03:30:16;99374.75;;;15.72;84.11
24154;BME280;12312;53.362;-1.518;2022-07-30T03:32:42;99381.53;;;15.67;84.88
24154;BME280;12312;53.362;-1.518;2022-07-30T03:35:08;99377.28;;;15.64;84.96
24154;BME280;12312;53.362;-1.518;2022-07-30T03:37:36;99383.06;;;15.69;85.84
24154;BME280;12312;53.362;-1.518;2022-07-30T03:40:04;99367.50;;;15.44;85.12
24154;BME280;12312;53.362;-1.518;2022-07-30T03:42:32;99380.63;;;15.47;86.05
24154;BME280;12312;53.362;-1.518;2022-07-30T03:45:01;99373.63;;;15.65;85.30
24154;BME280;12312;53.362;-1.518;2022-07-30T03:47:30;99372.88;;;15.63;85.22
24154;BME280;12312;53.362;-1.518;2022-07-30T03:49:57;99391.13;;;15.60;85.51
24154;BME280;12312;53.362;-1.518;2022-07-30T03:52:26;99388.56;;;15.58;85.36
24154;BME280;12312;53.362;-1.518;2022-07-30T03:54:52;99379.81;;;15.56;86.43
24154;BME280;12312;53.362;-1.518;2022-07-30T03:57:18;99376.72;;;15.70;85.56
24154;BME280;12312;53.362;-1.518;2022-07-30T03:59:44;99381.94;;;15.62;86.28
24154;BME280;12312;53.362;-1.518;2022-07-30T04:02:11;99377.28;;;15.64;85.65
24154;BME280;12312;53.362;-1.518;2022-07-30T04:04:41;99380.22;;;15.52;86.59
24154;BME280;12312;53.362;-1.518;2022-07-30T04:07:09;99384.47;;;15.54;87.06
24154;BME280;12312;53.362;-1.518;2022-07-30T04:09:35;99377.56;;;15.61;86.41
24154;BME280;12312;53.362;-1.518;2022-07-30T04:12:01;99377.56;;;15.61;86.17
24154;BME280;12312;53.362;-1.518;2022-07-30T04:14:38;99377.81;;;15.49;87.43
24154;BME280;12312;53.362;-1.518;2022-07-30T04:17:20;99367.13;;;15.58;87.35
24154;BME280;12312;53.362;-1.518;2022-07-30T04:19:56;99384.34;;;15.65;86.85
24154;BME280;12312;53.362;-1.518;2022-07-30T04:22:33;99380.13;;;15.63;86.05
24154;BME280;12312;53.362;-1.518;2022-07-30T04:25:00;99374.44;;;15.56;86.54
24154;BME280;12312;53.362;-1.518;2022-07-30T04:27:27;99370.75;;;15.57;86.62
24154;BME280;12312;53.362;-1.518;2022-07-30T04:29:53;99376.41;;;15.54;86.93
24154;BME280;12312;53.362;-1.518;2022-07-30T04:32:22;99383.47;;;15.46;87.52
24154;BME280;12312;53.362;-1.518;2022-07-30T04:34:52;99370.50;;;15.60;85.80
24154;BME280;12312;53.362;-1.518;2022-07-30T04:37:21;99372.31;;;15.50;86.75
24154;BME280;12312;53.362;-1.518;2022-07-30T04:39:47;99372.19;;;15.52;87.14
24154;BME280;12312;53.362;-1.518;2022-07-30T04:42:20;99366.22;;;15.48;86.22
24154;BME280;12312;53.362;-1.518;2022-07-30T04:44:46;99353.25;;;15.53;86.40
24154;BME280;12312;53.362;-1.518;2022-07-30T04:47:12;99361.47;;;15.61;85.15
24154;BME280;12312;53.362;-1.518;2022-07-30T04:49:39;99364.00;;;15.53;85.36
24154;BME280;12312;53.362;-1.518;2022-07-30T04:52:07;99362.28;;;15.62;84.68
24154;BME280;12312;53.362;-1.518;2022-07-30T04:54:39;99366.28;;;15.67;83.74
24154;BME280;12312;53.362;-1.518;2022-07-30T04:57:09;99360.91;;;15.67;83.21
24154;BME280;12312;53.362;-1.518;2022-07-30T04:59:35;99359.78;;;15.70;82.74
24154;BME280;12312;53.362;-1.518;2022-07-30T05:02:05;99352.69;;;15.59;82.99
24154;BME280;12312;53.362;-1.518;2022-07-30T05:04:33;99356.94;;;15.52;84.12
24154;BME280;12312;53.362;-1.518;2022-07-30T05:07:00;99359.06;;;15.58;82.99
24154;BME280;12312;53.362;-1.518;2022-07-30T05:09:27;99351.56;;;15.52;83.10
24154;BME280;12312;53.362;-1.518;2022-07-30T05:11:54;99358.03;;;15.50;83.50
24154;BME280;12312;53.362;-1.518;2022-07-30T05:14:21;99360.88;;;15.58;82.86
24154;BME280;12312;53.362;-1.518;2022-07-30T05:16:48;99359.38;;;15.35;84.93
24154;BME280;12312;53.362;-1.518;2022-07-30T05:19:14;99357.22;;;15.49;83.84
24154;BME280;12312;53.362;-1.518;2022-07-30T05:21:40;99363.44;;;15.59;83.35
24154;BME280;12312;53.362;-1.518;2022-07-30T05:24:05;99362.31;;;15.52;83.64
24154;BME280;12312;53.362;-1.518;2022-07-30T05:26:31;99361.44;;;15.52;83.61
24154;BME280;12312;53.362;-1.518;2022-07-30T05:28:57;99359.47;;;15.54;83.15
24154;BME280;12312;53.362;-1.518;2022-07-30T05:31:24;99363.72;;;15.56;83.27
24154;BME280;12312;53.362;-1.518;2022-07-30T05:33:50;99368.09;;;15.48;84.31
24154;BME280;12312;53.362;-1.518;2022-07-30T05:36:16;99359.06;;;15.58;83.59
24154;BME280;12312;53.362;-1.518;2022-07-30T05:38:41;99353.53;;;15.50;84.34
24154;BME280;12312;53.362;-1.518;2022-07-30T05:41:07;99369.97;;;15.36;86.65
24154;BME280;12312;53.362;-1.518;2022-07-30T05:43:33;99368.00;;;15.29;87.27
24154;BME280;12312;53.362;-1.518;2022-07-30T05:45:59;99368.66;;;15.21;87.63
24154;BME280;12312;53.362;-1.518;2022-07-30T05:48:25;99369.66;;;15.20;87.83
24154;BME280;12312;53.362;-1.518;2022-07-30T05:50:53;99371.50;;;15.20;88.15
24154;BME280;12312;53.362;-1.518;2022-07-30T05:53:18;99372.63;;;15.17;87.62
24154;BME280;12312;53.362;-1.518;2022-07-30T05:55:44;99368.22;;;15.07;88.19
24154;BME280;12312;53.362;-1.518;2022-07-30T05:58:10;99370.03;;;15.06;88.92
24154;BME280;12312;53.362;-1.518;2022-07-30T06:00:36;99374.41;;;15.07;88.75
24154;BME280;12312;53.362;-1.518;2022-07-30T06:03:02;99368.06;;;15.08;88.44
24154;BME280;12312;53.362;-1.518;2022-07-30T06:05:28;99366.22;;;14.99;90.22
24154;BME280;12312;53.362;-1.518;2022-07-30T06:07:55;99362.25;;;15.03;89.68
24154;BME280;12312;53.362;-1.518;2022-07-30T06:10:21;99345.72;;;14.98;89.57
24154;BME280;12312;53.362;-1.518;2022-07-30T06:12:48;99350.00;;;15.01;89.45
24154;BME280;12312;53.362;-1.518;2022-07-30T06:15:14;99339.00;;;15.04;89.60
24154;BME280;12312;53.362;-1.518;2022-07-30T06:17:44;99345.72;;;14.98;90.33
24154;BME280;12312;53.362;-1.518;2022-07-30T06:20:12;99349.84;;;15.02;90.24
24154;BME280;12312;53.362;-1.518;2022-07-30T06:22:39;99349.84;;;15.02;90.14
24154;BME280;12312;53.362;-1.518;2022-07-30T06:25:05;99353.38;;;15.03;90.09
24154;BME280;12312;53.362;-1.518;2022-07-30T06:27:32;99346.91;;;15.05;90.06
24154;BME280;12312;53.362;-1.518;2022-07-30T06:30:02;99352.81;;;14.99;90.38
24154;BME280;12312;53.362;-1.518;2022-07-30T06:32:29;99351.94;;;14.99;90.30
24154;BME280;12312;53.362;-1.518;2022-07-30T06:34:55;99357.19;;;15.00;90.31
24154;BME280;12312;53.362;-1.518;2022-07-30T06:37:21;99340.31;;;14.89;91.81
24154;BME280;12312;53.362;-1.518;2022-07-30T06:39:46;99347.66;;;14.87;92.43
24154;BME280;12312;53.362;-1.518;2022-07-30T06:42:12;99332.19;;;14.90;91.89
24154;BME280;12312;53.362;-1.518;2022-07-30T06:44:39;99324.56;;;14.95;91.47
24154;BME280;12312;53.362;-1.518;2022-07-30T06:47:05;99329.66;;;14.98;91.21
24154;BME280;12312;53.362;-1.518;2022-07-30T06:49:32;99331.38;;;14.99;90.70
24154;BME280;12312;53.362;-1.518;2022-07-30T06:51:59;99334.31;;;14.96;91.77
24154;BME280;12312;53.362;-1.518;2022-07-30T06:54:25;99345.72;;;14.98;90.70
24154;BME280;12312;53.362;-1.518;2022-07-30T06:56:50;99333.31;;;14.97;91.22
24154;BME280;12312;53.362;-1.518;2022-07-30T06:59:16;99346.72;;;14.97;91.61
24154;BME280;12312;53.362;-1.518;2022-07-30T07:01:43;99351.94;;;14.99;91.78
24154;BME280;12312;53.362;-1.518;2022-07-30T07:04:09;99357.31;;;14.99;91.88
24154;BME280;12312;53.362;-1.518;2022-07-30T07:06:34;99361.53;;;15.01;92.47
24154;BME280;12312;53.362;-1.518;2022-07-30T07:09:00;99365.66;;;15.05;92.19
24154;BME280;12312;53.362;-1.518;2022-07-30T07:11:26;99364.13;;;15.12;91.59
24154;BME280;12312;53.362;-1.518;2022-07-30T07:13:52;99366.53;;;15.15;91.79
24154;BME280;12312;53.362;-1.518;2022-07-30T07:16:19;99372.63;;;15.17;91.82
24154;BME280;12312;53.362;-1.518;2022-07-30T07:18:47;99369.94;;;15.17;91.65
24154;BME280;12312;53.362;-1.518;2022-07-30T07:21:14;99368.66;;;15.21;91.27
24154;BME280;12312;53.362;-1.518;2022-07-30T07:23:41;99364.72;;;15.25;90.78
24154;BME280;12312;53.362;-1.518;2022-07-30T07:26:06;99358.81;;;15.31;91.40
24154;BME280;12312;53.362;-1.518;2022-07-30T07:28:32;99359.66;;;15.32;91.16
24154;BME280;12312;53.362;-1.518;2022-07-30T07:30:58;99355.22;;;15.42;91.20
24154;BME280;12312;53.362;-1.518;2022-07-30T07:33:24;99355.78;;;15.45;91.15
24154;BME280;12312;53.362;-1.518;2022-07-30T07:35:50;99359.91;;;15.49;90.54
24154;BME280;12312;53.362;-1.518;2022-07-30T07:38:18;99360.16;;;15.56;91.02
24154;BME280;12312;53.362;-1.518;2022-07-30T07:40:44;99360.34;;;15.64;90.62
24154;BME280;12312;53.362;-1.518;2022-07-30T07:43:10;99353.69;;;15.68;90.73
24154;BME280;12312;53.362;-1.518;2022-07-30T07:45:36;99346.66;;;15.76;89.99
24154;BME280;12312;53.362;-1.518;2022-07-30T07:48:02;99353.44;;;15.80;89.57
24154;BME280;12312;53.362;-1.518;2022-07-30T07:50:27;99356.41;;;15.87;88.76
24154;BME280;12312;53.362;-1.518;2022-07-30T07:52:53;99360.34;;;15.92;89.19
24154;BME280;12312;53.362;-1.518;2022-07-30T07:55:18;99356.94;;;15.90;89.80
24154;BME280;12312;53.362;-1.518;2022-07-30T07:57:44;99354.69;;;15.95;89.36
24154;BME280;12312;53.362;-1.518;2022-07-30T08:00:12;99357.81;;;16.00;88.82
24154;BME280;12312;53.362;-1.518;2022-07-30T08:02:42;99358.66;;;16.11;88.71
24154;BME280;12312;53.362;-1.518;2022-07-30T08:05:09;99360.75;;;16.17;87.96
24154;BME280;12312;53.362;-1.518;2022-07-30T08:07:37;99367.00;;;16.17;87.89
24154;BME280;12312;53.362;-1.518;2022-07-30T08:10:04;99361.91;;;16.24;87.82
24154;BME280;12312;53.362;-1.518;2022-07-30T08:12:30;99359.91;;;16.26;87.43
24154;BME280;12312;53.362;-1.518;2022-07-30T08:14:56;99360.91;;;16.25;87.43
24154;BME280;12312;53.362;-1.518;2022-07-30T08:17:22;99362.31;;;16.29;87.33
24154;BME280;12312;53.362;-1.518;2022-07-30T08:19:48;99365.69;;;16.31;87.10
24154;BME280;12312;53.362;-1.518;2022-07-30T08:22:13;99352.56;;;16.28;86.80
24154;BME280;12312;53.362;-1.518;2022-07-30T08:24:39;99358.94;;;16.27;87.12
24154;BME280;12312;53.362;-1.518;2022-07-30T08:27:05;99357.22;;;16.26;87.41
24154;BME280;12312;53.362;-1.518;2022-07-30T08:29:31;99353.56;;;16.27;87.25
24154;BME280;12312;53.362;-1.518;2022-07-30T08:31:56;99359.22;;;16.24;87.77
24154;BME280;12312;53.362;-1.518;2022-07-30T08:34:22;99351.03;;;16.25;88.44
24154;BME280;12312;53.362;-1.518;2022-07-30T08:36:47;99352.56;;;16.37;88.89
24154;BME280;12312;53.362;-1.518;2022-07-30T08:39:13;99353.25;;;16.49;86.95
24154;BME280;12312;53.362;-1.518;2022-07-30T08:41:40;99351.84;;;16.54;87.60
24154;BME280;12312;53.362;-1.518;2022-07-30T08:44:09;99359.47;;;16.59;87.10
24154;BME280;12312;53.362;-1.518;2022-07-30T08:46:40;99351.00;;;16.54;87.08
24154;BME280;12312;53.362;-1.518;2022-07-30T08:49:06;99352.38;;;16.58;87.57
24154;BME280;12312;53.362;-1.518;2022-07-30T08:51:34;99348.97;;;16.65;87.12
24154;BME280;12312;53.362;-1.518;2022-07-30T08:54:02;99342.72;;;16.74;87.17
24154;BME280;12312;53.362;-1.518;2022-07-30T08:56:29;99349.66;;;16.77;86.34
24154;BME280;12312;53.362;-1.518;2022-07-30T08:58:56;99349.75;;;16.85;86.61
24154;BME280;12312;53.362;-1.518;2022-07-30T09:01:23;99345.66;;;16.81;87.49
24154;BME280;12312;53.362;-1.518;2022-07-30T09:03:48;99337.13;;;16.95;86.78
24154;BME280;12312;53.362;-1.518;2022-07-30T09:06:14;99343.16;;;17.06;86.13
24154;BME280;12312;53.362;-1.518;2022-07-30T09:08:44;99343.72;;;17.10;85.90
24154;BME280;12312;53.362;-1.518;2022-07-30T09:11:11;99346.41;;;17.10;85.80
24154;BME280;12312;53.362;-1.518;2022-07-30T09:13:40;99349.34;;;17.16;85.83
24154;BME280;12312;53.362;-1.518;2022-07-30T09:16:19;99347.59;;;17.25;85.64
24154;BME280;12312;53.362;-1.518;2022-07-30T09:18:45;99344.94;;;17.15;85.98
24154;BME280;12312;53.362;-1.518;2022-07-30T09:21:26;99351.66;;;17.29;85.05
24154;BME280;12312;53.362;-1.518;2022-07-30T09:23:58;99359.22;;;17.25;86.46
24154;BME280;12312;53.362;-1.518;2022-07-30T09:26:24;99363.28;;;17.29;85.31
24154;BME280;12312;53.362;-1.518;2022-07-30T09:28:51;99368.78;;;17.37;85.02
24154;BME280;12312;53.362;-1.518;2022-07-30T09:31:18;99361.44;;;17.30;85.53
24154;BME280;12312;53.362;-1.518;2022-07-30T09:33:45;99374.66;;;17.23;87.07
24154;BME280;12312;53.362;-1.518;2022-07-30T09:36:15;99366.75;;;17.39;85.27
24154;BME280;12312;53.362;-1.518;2022-07-30T09:38:52;99372.84;;;17.51;85.00
24154;BME280;12312;53.362;-1.518;2022-07-30T09:41:31;99353.69;;;17.54;85.61
24154;BME280;12312;53.362;-1.518;2022-07-30T09:43:57;99366.69;;;17.58;84.44
24154;BME280;12312;53.362;-1.518;2022-07-30T09:46:39;99360.75;;;17.55;85.20
24154;BME280;12312;53.362;-1.518;2022-07-30T09:49:16;99368.63;;;17.66;84.50
24154;BME280;12312;53.362;-1.518;2022-07-30T09:51:42;99368.63;;;17.66;84.13
24154;BME280;12312;53.362;-1.518;2022-07-30T09:54:08;99370.31;;;17.67;84.27
24154;BME280;12312;53.362;-1.518;2022-07-30T09:56:34;99373.44;;;17.62;84.90
24154;BME280;12312;53.362;-1.518;2022-07-30T09:59:00;99374.63;;;17.60;85.75
24154;BME280;12312;53.362;-1.518;2022-07-30T10:01:26;99371.47;;;17.64;85.59
24154;BME280;12312;53.362;-1.518;2022-07-30T10:03:53;99367.25;;;17.62;85.10
24154;BME280;12312;53.362;-1.518;2022-07-30T10:06:34;99374.63;;;17.60;85.48
24154;BME280;12312;53.362;-1.518;2022-07-30T10:09:04;99382.84;;;17.58;84.90
24154;BME280;12312;53.362;-1.518;2022-07-30T10:11:35;99370.41;;;17.57;86.04
24154;BME280;12312;53.362;-1.518;2022-07-30T10:14:03;99384.59;;;17.50;87.92
24154;BME280;12312;53.362;-1.518;2022-07-30T10:16:29;99386.00;;;17.54;86.04
24154;BME280;12312;53.362;-1.518;2022-07-30T10:18:56;99380.19;;;17.49;85.98
24154;BME280;12312;53.362;-1.518;2022-07-30T10:21:25;99385.19;;;17.44;86.57
24154;BME280;12312;53.362;-1.518;2022-07-30T10:23:52;99393.25;;;17.44;86.14
24154;BME280;12312;53.362;-1.518;2022-07-30T10:26:18;99399.19;;;17.47;86.70
24154;BME280;12312;53.362;-1.518;2022-07-30T10:28:45;99394.38;;;17.51;86.46
24154;BME280;12312;53.362;-1.518;2022-07-30T10:31:13;99395.75;;;17.55;86.48
24154;BME280;12312;53.362;-1.518;2022-07-30T10:33:40;99393.47;;;17.60;86.13
24154;BME280;12312;53.362;-1.518;2022-07-30T10:36:09;99392.41;;;17.70;85.80
24154;BME280;12312;53.362;-1.518;2022-07-30T10:38:38;99394.78;;;17.73;85.90
24154;BME280;12312;53.362;-1.518;2022-07-30T10:41:10;99396.78;;;17.71;86.25
24154;BME280;12312;53.362;-1.518;2022-07-30T10:47:04;99390.63;;;17.79;85.93
24154;BME280;12312;53.362;-1.518;2022-07-30T10:49:30;99398.63;;;17.71;85.83
24154;BME280;12312;53.362;-1.518;2022-07-30T10:51:57;99392.41;;;17.70;86.34
24154;BME280;12312;53.362;-1.518;2022-07-30T10:54:43;99387.56;;;17.74;86.51
24154;BME280;12312;53.362;-1.518;2022-07-30T10:57:20;99377.56;;;17.84;86.86
24154;BME280;12312;53.362;-1.518;2022-07-30T11:02:15;99382.78;;;17.68;87.61
24154;BME280;12312;53.362;-1.518;2022-07-30T11:04:42;99384.53;;;17.59;88.29
24154;BME280;12312;53.362;-1.518;2022-07-30T11:07:33;99387.97;;;17.52;88.69
24154;BME280;12312;53.362;-1.518;2022-07-30T11:09:59;99384.06;;;17.46;90.69
24154;BME280;12312;53.362;-1.518;2022-07-30T11:15:13;99385.19;;;17.44;91.04
24154;BME280;12312;53.362;-1.518;2022-07-30T11:20:29;99391.41;;;17.44;91.28
24154;BME280;12312;53.362;-1.518;2022-07-30T11:23:50;99388.28;;;17.49;90.61
24154;BME280;12312;53.362;-1.518;2022-07-30T11:25:57;99388.28;;;17.49;89.77
24154;BME280;12312;53.362;-1.518;2022-07-30T11:28:48;99390.81;;;17.50;89.91
24154;BME280;12312;53.362;-1.518;2022-07-30T11:31:29;99390.06;;;17.58;89.36
24154;BME280;12312;53.362;-1.518;2022-07-30T11:34:29;99385.38;;;17.60;90.36
24154;BME280;12312;53.362;-1.518;2022-07-30T11:42:32;99383.91;;;17.48;91.53
24154;BME280;12312;53.362;-1.518;2022-07-30T11:45:18;99384.91;;;17.47;92.57
24154;BME280;12312;53.362;-1.518;2022-07-30T11:47:46;99375.88;;;17.29;93.24
24154;BME280;12312;53.362;-1.518;2022-07-30T11:50:27;99382.06;;;17.39;93.07
24154;BME280;12312;53.362;-1.518;2022-07-30T11:52:57;99384.66;;;17.31;93.90
24154;BME280;12312;53.362;-1.518;2022-07-30T11:55:23;99393.13;;;17.36;93.06
24154;BME280;12312;53.362;-1.518;2022-07-30T11:57:50;99392.53;;;17.42;92.47
24154;BME280;12312;53.362;-1.518;2022-07-30T12:00:18;99381.50;;;17.45;93.16
24154;BME280;12312;53.362;-1.518;2022-07-30T12:02:45;99389.69;;;17.53;91.84
24154;BME280;12312;53.362;-1.518;2022-07-30T12:05:13;99391.97;;;17.48;92.52
24154;BME280;12312;53.362;-1.518;2022-07-30T12:07:39;99370.13;;;17.51;92.43
24154;BME280;12312;53.362;-1.518;2022-07-30T12:10:17;99374.63;;;17.60;93.01
24154;BME280;12312;53.362;-1.518;2022-07-30T12:12:45;99379.69;;;17.81;92.48
24154;BME280;12312;53.362;-1.518;2022-07-30T12:15:27;99374.78;;;18.11;91.56
24154;BME280;12312;53.362;-1.518;2022-07-30T12:17:53;99367.41;;;18.48;90.50
24154;BME280;12312;53.362;-1.518;2022-07-30T12:20:19;99364.66;;;18.66;87.65
24154;BME280;12312;53.362;-1.518;2022-07-30T12:22:47;99372.25;;;18.70;87.43
24154;BME280;12312;53.362;-1.518;2022-07-30T12:25:13;99372.25;;;18.70;87.42
24154;BME280;12312;53.362;-1.518;2022-07-30T12:27:40;99371.00;;;18.57;86.47
24154;BME280;12312;53.362;-1.518;2022-07-30T12:30:11;99379.56;;;18.52;86.87
24154;BME280;12312;53.362;-1.518;2022-07-30T12:32:38;99372.53;;;18.59;87.05
24154;BME280;12312;53.362;-1.518;2022-07-30T12:35:04;99372.25;;;18.70;86.77
24154;BME280;12312;53.362;-1.518;2022-07-30T12:37:30;99370.56;;;18.69;85.97
24154;BME280;12312;53.362;-1.518;2022-07-30T12:40:14;99371.94;;;18.73;86.39
24154;BME280;12312;53.362;-1.518;2022-07-30T12:42:51;99362.19;;;18.72;86.05
24154;BME280;12312;53.362;-1.518;2022-07-30T12:45:31;99367.97;;;18.60;86.41
24154;BME280;12312;53.362;-1.518;2022-07-30T12:47:58;99374.38;;;18.59;87.21
24154;BME280;12312;53.362;-1.518;2022-07-30T12:50:26;99374.47;;;18.49;87.06
24154;BME280;12312;53.362;-1.518;2022-07-30T12:52:53;99364.16;;;18.27;89.23
24154;BME280;12312;53.362;-1.518;2022-07-30T12:55:32;99364.00;;;18.46;87.92
24154;BME280;12312;53.362;-1.518;2022-07-30T12:58:05;99364.00;;;18.46;88.04
24154;BME280;12312;53.362;-1.518;2022-07-30T13:03:24;99366.31;;;18.41;88.42
24154;BME280;12312;53.362;-1.518;2022-07-30T13:05:53;99365.94;;;18.36;88.53
24154;BME280;12312;53.362;-1.518;2022-07-30T13:08:19;99372.88;;;18.39;89.25
24154;BME280;12312;53.362;-1.518;2022-07-30T13:10:57;99356.31;;;18.51;88.13
24154;BME280;12312;53.362;-1.518;2022-07-30T13:13:27;99362.75;;;18.58;87.74
24154;BME280;12312;53.362;-1.518;2022-07-30T13:16:01;99362.75;;;18.58;86.27